KICT/ICT METAR and TAF weather

Enter ICAO airport designator
Station Type Date Time Source
KICT METAR 2019/10/15 17:53 UTC NOAA

KICT 151753Z 01021G32KT 10SM FEW030 FEW180 18/04 A3001 RMK AO2 PK WND 01032/1750 SLP155 60000 T01830039 10189 20133 51013


Station Type Date Time Source
KICT Decoded METAR 2019/10/15 17:53 UTC NOAA

WICHITA MID-CONTINENT AIRPORT , KS, United States (KICT) 37-39N 97-26W 408M
Oct 15, 2019 - 01:53 PM EDT / 2019.10.15 1753 UTC
Wind: from the N (010 degrees) at 24 MPH (21 KT) gusting to 37 MPH (32 KT):0
Visibility: 10 mile(s):0
Sky conditions: mostly clear
Temperature: 64.9 F (18.3 C)
Dew Point: 39.0 F (3.9 C)
Relative Humidity: 38%
Pressure (altimeter): 30.01 in. Hg (1016 hPa)
Pressure tendency: 0.04 inches (1.3 hPa) higher than three hours ago
ob: KICT 151753Z 01021G32KT 10SM FEW030 FEW180 18/04 A3001 RMK AO2 PK WND 01032/1750 SLP155 60000 T01830039 10189 20133 51013
cycle: 18

Station Type Date Time Source
KICT TAF 2019/10/15 18:22 UTC NOAA

TAF KICT 151720Z 1518/1618 02021G30KT P6SM FEW140
FM152000 01020G28KT P6SM SKC
FM160100 36012KT P6SM SKC
FM160900 35004KT P6SM SKC

Example: see airport list